Startpagina
METAR-TAF:

METAR-TAF

Vliegvelden :

Ankara Esenboğa, Turkije

Luchthaven Ankara Esenboga

breedte: 40-07N, lengte: 032-59E, hoogte: 953 m

Actueel weer

Dit bericht is 16 minuten geleden gemaakt, om 08:50 UTC
Wind 4 kt uit het zuiden
Temperatuur 21°C
Vochtigheid 35%
Druk 1018 hPa
Zicht 10 km of meer
Verspreide wolken op 4000 ft

METAR: LTAC 230850Z 17004KT 9999 SCT040 21/05 Q1018 NOSIG RMK RWY21L VRB03KT RWY03L VRB03KT RWY21R VRB03KT

Tijdstip: 12:06 (09:06 UTC)

Verwachting

Dit bericht is 4 uur en het 26 minuten geleden gemaakt, om 04:40 UTC
Verwachting geldig van 23 om 06 UTC tot 24 om 06 UTC
Wind 2 kt uit variabele richting
Zicht 10 km of meer
Verspreide wolken op 4000 ft
Tijdelijke
van 23 om 12 UTC tot 23 om 16 UTC
Wind 12 kt uit het westen
Wijzigt naar
van 23 om 16 UTC tot 23 om 18 UTC
Zicht 10 km of meer
geen wolken onder 1500 m en geen cumulonimbus

TAF: LTAC 230440Z 2306/2406 VRB02KT 9999 SCT040 TEMPO 2312/2316 27012KT BECMG 2316/2318 CAVOK

Waarnemingen en weersverwachtingen van meer dan 4000 vliegvelden (METAR en TAF).

De beschikbare stations zijn de gele en rode punten op de kaart.

Ga met uw muis naar het station om de naam te zien.

Klik dan om waarnemingen en weersverwachtingen te zien.

kaart wijzigen: klik op de groene knoppen met een zwart kruis om in te zoomen, op de groene knop met een streepje om uit te zoomen of op de groene pijlen voor aangrenzende kaarten.


METAR-TAF: